Time;durP1;ratioP1;P1;durP2;ratioP2;P2;SDS_P1;SDS_P2;PMS_P1;PMS_P2;Temp;Humidity;BMP_temperature;BMP_pressure;BME280_temperature;BME280_humidity;BME280_pressure;Samples;Min_cycle;Max_cycle;Signal;HPM_P1;HPM_P2
2021/11/18 00:00:46;;;;;;;21.70;17.10;;;5.90;90.80;;;4.67;91.87;98988.28;4967180;28;20576;-68
2021/11/18 00:03:14;;;;;;;21.57;17.03;;;5.90;90.60;;;4.74;91.98;98978.63;4970778;28;20497;-68
2021/11/18 00:05:44;;;;;;;23.13;16.47;;;6.00;90.00;;;4.39;92.42;98964.25;4972799;28;20584;-69
2021/11/18 00:08:11;;;;;;;24.23;17.57;;;5.90;90.30;;;4.54;93.33;98985.97;4967473;28;20463;-72
2021/11/18 00:10:43;;;;;;;25.60;17.40;;;5.90;91.10;;;4.76;92.05;98990.00;4963043;28;20560;-68
2021/11/18 00:13:13;;;;;;;20.20;16.53;;;6.00;90.20;;;4.77;91.63;98990.88;4966603;28;20921;-69
2021/11/18 00:15:42;;;;;;;25.03;17.00;;;6.00;90.00;;;4.76;92.03;98991.84;4965892;28;20552;-68
2021/11/18 00:18:12;;;;;;;22.40;16.80;;;6.10;90.50;;;4.68;92.32;98993.44;4969074;28;20486;-68
2021/11/18 00:20:44;;;;;;;25.80;17.80;;;6.00;90.60;;;4.64;92.39;98993.94;4955689;28;21956;-69
2021/11/18 00:23:11;;;;;;;22.77;17.93;;;6.00;90.60;;;4.58;93.64;98999.88;4971071;28;20461;-68
2021/11/18 00:25:39;;;;;;;21.97;17.80;;;5.90;91.00;;;4.54;93.94;99000.19;4969781;28;20497;-68
2021/11/18 00:28:07;;;;;;;23.83;17.67;;;5.90;91.00;;;4.51;94.04;98983.59;4965936;28;20465;-69
2021/11/18 00:30:34;;;;;;;21.97;17.30;;;5.90;91.60;;;4.73;92.88;98997.53;4967110;28;20497;-67
2021/11/18 00:33:02;;;;;;;21.53;16.93;;;6.00;91.50;;;4.89;92.11;98997.66;4970320;28;20486;-68
2021/11/18 00:35:31;;;;;;;26.80;17.60;;;6.10;90.70;;;4.88;92.24;98990.63;4968992;28;20453;-68
2021/11/18 00:38:00;;;;;;;28.13;19.10;;;6.20;90.80;;;4.78;93.05;98982.69;4971185;28;20561;-68
2021/11/18 00:40:29;;;;;;;24.80;16.70;;;6.10;90.70;;;4.74;93.58;98983.16;4968004;28;20524;-69
2021/11/18 00:42:57;;;;;;;24.30;17.73;;;6.10;91.10;;;4.86;92.46;98975.69;4953924;28;20462;-68
2021/11/18 00:45:26;;;;;;;24.97;18.00;;;6.20;90.70;;;4.66;93.74;98973.22;4953457;28;20496;-69
2021/11/18 00:47:55;;;;;;;24.40;18.93;;;6.10;91.10;;;4.69;93.81;98980.91;4965577;28;20462;-69
2021/11/18 00:50:26;;;;;;;23.50;18.10;;;6.00;91.50;;;4.77;94.07;98972.13;4967462;28;20460;-69
2021/11/18 00:52:54;;;;;;;27.00;18.60;;;6.10;91.60;;;4.86;92.63;98983.75;4954273;28;20450;-69
2021/11/18 00:55:27;;;;;;;28.40;18.27;;;6.20;91.10;;;4.97;91.74;98972.78;4974306;28;20488;-69
2021/11/18 00:57:55;;;;;;;27.67;18.20;;;6.20;90.90;;;5.10;91.36;98981.25;4972138;28;20457;-67
2021/11/18 01:00:26;;;;;;;29.90;18.97;;;6.30;90.10;;;4.99;92.57;98991.38;4969680;28;20572;-68
2021/11/18 01:02:54;;;;;;;31.97;19.17;;;6.30;90.30;;;4.98;92.29;99001.25;4968417;28;20473;-69
2021/11/18 01:05:25;;;;;;;29.07;18.60;;;6.30;90.70;;;4.86;93.32;98991.78;4972029;28;20572;-69
2021/11/18 01:07:54;;;;;;;30.83;19.37;;;6.20;91.20;;;4.94;92.17;98979.28;4953995;28;20961;-69
2021/11/18 01:10:25;;;;;;;32.83;21.70;;;6.30;91.10;;;4.99;93.15;99004.75;4954367;28;20952;-69
2021/11/18 01:12:52;;;;;;;33.83;18.60;;;6.30;91.20;;;5.00;93.28;99015.31;4972223;28;20461;-68
2021/11/18 01:15:24;;;;;;;30.47;19.90;;;6.30;91.40;;;4.87;93.55;99009.53;4950549;28;20572;-69
2021/11/18 01:17:51;;;;;;;31.00;19.97;;;6.20;91.50;;;4.71;95.55;99000.34;4967876;28;20788;-69
2021/11/18 01:20:22;;;;;;;34.17;20.57;;;6.10;92.50;;;4.90;95.24;99009.19;4967945;28;20501;-69
2021/11/18 01:22:50;;;;;;;29.90;19.60;;;6.20;93.00;;;4.88;95.67;99000.50;4961487;28;20556;-69
2021/11/18 01:25:17;;;;;;;36.70;21.30;;;6.10;93.00;;;4.73;95.26;99000.22;4977852;28;20560;-70
2021/11/18 01:27:45;;;;;;;36.93;20.90;;;6.10;92.90;;;4.74;96.80;99002.72;4968536;28;20557;-69
2021/11/18 01:30:18;;;;;;;36.43;20.60;;;6.00;94.10;;;4.87;95.76;98990.78;4966287;28;20497;-69
2021/11/18 01:32:46;;;;;;;36.13;20.37;;;6.10;93.80;;;4.90;95.16;99003.84;4969922;28;20548;-67
2021/11/18 01:35:13;;;;;;;39.03;22.93;;;6.20;93.00;;;4.83;95.55;99008.97;4968649;28;20536;-69
2021/11/18 01:37:40;;;;;;;40.20;22.57;;;6.10;93.40;;;4.70;96.56;99001.34;4967796;28;20868;-71
2021/11/18 01:40:11;;;;;;;42.27;23.40;;;6.10;93.50;;;4.64;97.43;99010.00;4952914;28;20549;-68
2021/11/18 01:42:39;;;;;;;39.33;22.17;;;6.10;94.60;;;5.05;95.45;99022.91;4969440;28;20545;-70
2021/11/18 01:45:10;;;;;;;34.13;20.90;;;6.30;93.60;;;5.01;94.75;99018.84;4975750;28;21036;-69
2021/11/18 01:47:38;;;;;;;38.57;22.60;;;6.30;93.10;;;4.90;95.63;99014.56;4969070;28;21181;-69
2021/11/18 01:50:07;;;;;;;36.27;21.70;;;6.20;93.70;;;5.02;95.75;99024.03;4967666;28;20560;-69
2021/11/18 01:52:34;;;;;;;42.30;22.27;;;6.30;93.50;;;4.93;96.28;99020.47;4972706;28;20552;-69
2021/11/18 01:55:02;;;;;;;37.33;22.43;;;6.20;94.00;;;4.88;95.64;99022.75;4962280;28;20493;-69
2021/11/18 01:57:32;;;;;;;36.83;22.80;;;6.20;93.60;;;5.00;96.21;99028.72;4971093;28;20468;-70
2021/11/18 02:00:00;;;;;;;35.80;20.87;;;6.20;94.00;;;5.07;95.57;99032.44;4961887;28;20453;-67
2021/11/18 02:02:29;;;;;;;38.53;22.93;;;6.30;93.70;;;5.13;94.32;99024.81;4954742;28;20536;-68
2021/11/18 02:05:09;;;;;;;40.50;22.93;;;6.40;93.20;;;5.18;94.65;99043.91;4978145;28;20453;-68
2021/11/18 02:07:38;;;;;;;39.50;23.00;;;6.40;92.50;;;5.16;94.22;99037.88;4969611;28;20489;-68
2021/11/18 02:10:09;;;;;;;42.23;22.80;;;6.50;92.50;;;4.99;94.54;99029.72;4954914;28;20557;-68
2021/11/18 02:12:37;;;;;;;42.43;22.97;;;6.40;92.50;;;5.00;95.70;99047.47;4971885;28;20473;-68
2021/11/18 02:15:16;;;;;;;37.53;21.83;;;6.30;93.20;;;5.05;95.57;99052.38;4971297;28;20536;-68
2021/11/18 02:17:44;;;;;;;42.67;23.30;;;6.40;93.30;;;5.01;95.74;99054.50;4971536;28;20501;-68
2021/11/18 02:20:24;;;;;;;44.87;23.10;;;6.30;93.20;;;4.92;95.62;99034.00;4950342;28;20485;-68
2021/11/18 02:22:51;;;;;;;41.73;23.37;;;6.30;93.30;;;5.09;95.10;99062.63;4971144;28;20543;-68
2021/11/18 02:25:18;;;;;;;47.83;24.60;;;6.40;93.50;;;4.91;96.37;99059.09;4971640;28;20473;-70
2021/11/18 02:27:45;;;;;;;45.50;25.63;;;6.30;93.70;;;4.89;96.65;99055.72;4972131;28;21309;-68
2021/11/18 02:30:13;;;;;;;49.30;25.10;;;6.20;94.90;;;4.79;97.00;99055.81;4968729;28;20568;-68
2021/11/18 02:32:42;;;;;;;45.47;24.23;;;6.20;94.60;;;4.79;97.01;99056.66;4970520;28;20505;-70
2021/11/18 02:35:15;;;;;;;50.07;24.63;;;6.20;94.90;;;5.18;95.91;99058.16;4975565;28;20553;-68
2021/11/18 02:37:44;;;;;;;42.30;23.27;;;6.30;94.40;;;5.13;94.83;99051.59;4972897;28;20987;-69
2021/11/18 02:40:13;;;;;;;41.93;23.83;;;6.40;93.30;;;5.20;94.65;99053.50;4970770;28;20488;-67
2021/11/18 02:42:43;;;;;;;44.17;24.03;;;6.40;93.20;;;5.04;95.08;99059.53;4968964;28;20528;-69
2021/11/18 02:45:14;;;;;;;45.83;23.27;;;6.40;93.00;;;5.16;94.62;99056.63;4970649;28;22416;-70
2021/11/18 02:47:41;;;;;;;45.17;23.47;;;6.50;92.60;;;5.29;94.17;99057.09;4969829;28;20505;-70
2021/11/18 02:50:12;;;;;;;38.07;22.90;;;6.50;92.90;;;5.18;94.68;99060.84;4954655;28;21135;-69
2021/11/18 02:52:40;;;;;;;41.27;23.87;;;6.50;92.60;;;5.30;94.54;99058.75;4972498;28;20476;-70
2021/11/18 02:55:12;;;;;;;39.07;22.27;;;6.50;92.50;;;5.20;94.36;99060.69;4971883;28;20549;-68
2021/11/18 02:57:39;;;;;;;42.90;23.97;;;6.50;92.30;;;5.01;95.51;99062.53;4970238;28;20556;-69
2021/11/18 03:00:12;;;;;;;38.40;22.80;;;6.40;93.00;;;5.22;95.14;99059.53;4917892;28;1056682;-69
2021/11/18 03:02:39;;;;;;;34.60;21.17;;;6.50;93.50;;;5.19;95.22;99056.31;4971845;28;20488;-70
2021/11/18 03:05:07;;;;;;;36.67;21.80;;;6.50;93.20;;;5.30;93.99;99045.34;4963054;28;20456;-69
2021/11/18 03:07:35;;;;;;;38.93;22.07;;;6.50;93.10;;;5.18;95.44;99060.00;4967089;28;20949;-69
2021/11/18 03:10:04;;;;;;;40.43;21.67;;;6.50;93.10;;;5.24;95.00;99051.34;4973868;28;20836;-69
2021/11/18 03:12:33;;;;;;;42.23;22.17;;;6.50;93.20;;;5.46;94.49;99057.19;4951552;28;20486;-70
2021/11/18 03:15:01;;;;;;;39.17;22.70;;;6.60;92.80;;;5.26;94.60;99049.34;4970617;28;21026;-69
2021/11/18 03:17:27;;;;;;;35.97;20.50;;;6.60;92.50;;;5.40;94.54;99064.03;4968928;28;21161;-69
2021/11/18 03:19:54;;;;;;;35.33;20.73;;;6.60;92.50;;;5.36;94.29;99058.13;4970452;28;20458;-68
2021/11/18 03:22:22;;;;;;;34.40;20.53;;;6.60;92.20;;;5.32;94.60;99062.13;4968819;28;21263;-68
2021/11/18 03:24:49;;;;;;;39.70;22.83;;;6.60;92.30;;;5.36;94.52;99066.16;4972302;28;20561;-69
2021/11/18 03:27:16;;;;;;;39.93;22.00;;;6.60;92.60;;;5.36;94.57;99076.06;4963708;28;20525;-69
2021/11/18 03:29:44;;;;;;;36.40;21.47;;;6.60;92.40;;;5.28;94.50;99070.63;4970462;28;20555;-69
2021/11/18 03:32:11;;;;;;;37.90;21.40;;;6.60;92.50;;;5.24;95.13;99064.75;4969844;28;20488;-71
2021/11/18 03:34:38;;;;;;;42.93;23.30;;;6.60;92.90;;;5.11;95.59;99065.13;4973087;28;20561;-70
2021/11/18 03:37:05;;;;;;;42.23;23.80;;;6.50;92.90;;;5.24;95.86;99067.44;4956052;28;20537;-70
2021/11/18 03:39:33;;;;;;;37.10;20.83;;;6.50;93.60;;;5.22;95.64;99061.38;4957941;28;20465;-70
2021/11/18 03:42:06;;;;;;;37.57;22.33;;;6.50;93.10;;;5.37;94.56;99059.81;4971268;28;20454;-69
2021/11/18 03:44:33;;;;;;;41.20;23.10;;;6.60;92.80;;;5.35;94.28;99055.63;4967386;28;20500;-70
2021/11/18 03:47:06;;;;;;;34.73;21.67;;;6.60;92.60;;;5.36;94.28;99058.13;4970316;28;21155;-70
2021/11/18 03:49:34;;;;;;;36.00;22.80;;;6.60;92.70;;;5.19;95.04;99064.34;4955382;28;20468;-70
2021/11/18 03:52:04;;;;;;;37.90;22.90;;;6.50;93.00;;;5.38;93.99;99072.22;4957364;28;20470;-70
2021/11/18 03:54:33;;;;;;;36.20;21.20;;;6.60;93.00;;;5.38;93.16;99077.59;4957607;28;20461;-70
2021/11/18 03:57:01;;;;;;;40.97;23.00;;;6.60;91.90;;;5.37;94.26;99073.19;4975867;28;20472;-70
2021/11/18 03:59:32;;;;;;;36.20;22.60;;;6.60;92.60;;;5.44;94.00;99076.09;4953601;28;20572;-69
2021/11/18 04:02:01;;;;;;;40.30;23.33;;;6.60;92.20;;;5.48;93.52;99076.63;4968775;28;20492;-70
2021/11/18 04:04:32;;;;;;;35.03;22.17;;;6.70;91.80;;;5.23;94.33;99073.75;4970878;28;20548;-70
2021/11/18 04:06:59;;;;;;;36.37;22.07;;;6.60;92.30;;;5.46;94.27;99089.34;4958297;28;20480;-71
2021/11/18 04:09:27;;;;;;;35.00;21.20;;;6.60;92.60;;;5.41;92.78;99094.34;4971636;28;20516;-70
2021/11/18 04:11:59;;;;;;;33.93;22.10;;;6.70;91.40;;;5.38;92.79;99099.03;4968886;28;20813;-68
2021/11/18 04:14:27;;;;;;;30.47;19.63;;;6.60;91.30;;;5.20;92.89;99093.69;4966881;28;20456;-68
2021/11/18 04:16:55;;;;;;;33.17;20.83;;;6.60;90.60;;;5.33;93.03;99087.91;4967068;28;20472;-69
2021/11/18 04:19:23;;;;;;;30.80;21.23;;;6.60;91.20;;;5.14;93.83;99090.78;4971550;28;20557;-68
2021/11/18 04:21:55;;;;;;;34.27;22.80;;;6.50;90.90;;;5.26;92.67;99097.59;4953329;28;20553;-70
2021/11/18 04:24:26;;;;;;;35.50;20.73;;;6.60;91.00;;;5.36;92.78;99090.28;4971555;28;20453;-69
2021/11/18 04:26:54;;;;;;;31.70;21.67;;;6.60;90.70;;;5.30;92.31;99103.47;4974483;28;20533;-69
2021/11/18 04:29:28;;;;;;;31.83;20.57;;;6.60;90.90;;;5.28;93.00;99102.78;4983707;28;20555;-69
2021/11/18 04:31:56;;;;;;;32.30;20.40;;;6.50;91.00;;;5.35;91.91;99111.91;4965861;28;20501;-69
2021/11/18 04:34:25;;;;;;;32.70;21.23;;;6.60;90.90;;;5.31;92.30;99097.97;4949494;28;20469;-69
2021/11/18 04:36:52;;;;;;;32.93;21.50;;;6.60;90.80;;;5.27;93.11;99101.09;4953321;28;20895;-69
2021/11/18 04:39:21;;;;;;;34.33;21.90;;;6.60;91.00;;;5.06;94.86;99099.59;4969507;28;20464;-69
2021/11/18 04:41:49;;;;;;;32.10;19.80;;;6.50;91.80;;;5.09;94.84;99110.84;4969043;28;20472;-69
2021/11/18 04:44:16;;;;;;;32.50;21.60;;;6.40;92.30;;;5.19;94.54;99110.75;4970303;28;20546;-69
2021/11/18 04:46:43;;;;;;;32.20;22.37;;;6.50;92.40;;;5.26;94.35;99127.06;4964119;28;20551;-69
2021/11/18 04:49:10;;;;;;;36.17;22.10;;;6.50;92.40;;;5.27;92.81;99123.38;4971731;28;20552;-69
2021/11/18 04:51:39;;;;;;;30.33;21.43;;;6.50;91.50;;;5.27;93.21;99120.72;4971110;28;20553;-70
2021/11/18 04:54:06;;;;;;;38.27;21.07;;;6.50;91.70;;;5.21;93.75;99126.66;4959719;28;20579;-70
2021/11/18 04:56:36;;;;;;;32.80;20.97;;;6.50;91.60;;;5.25;93.94;99120.84;4971110;28;21075;-70
2021/11/18 04:59:05;;;;;;;34.50;21.93;;;6.50;91.90;;;5.41;92.51;99123.84;4969989;28;20489;-69
2021/11/18 05:01:34;;;;;;;33.17;20.37;;;6.60;91.30;;;5.16;92.48;99115.56;4967302;28;20491;-69
2021/11/18 05:04:02;;;;;;;34.70;21.57;;;6.50;90.90;;;5.08;93.98;99117.19;4954674;28;20460;-69
2021/11/18 05:06:29;;;;;;;31.97;20.47;;;6.40;92.10;;;5.06;94.58;99121.84;4969800;28;20476;-69
2021/11/18 05:08:57;;;;;;;31.87;21.20;;;6.30;92.20;;;5.00;94.34;99127.81;4973121;28;20462;-69
2021/11/18 05:11:26;;;;;;;31.53;21.10;;;6.30;92.30;;;4.96;95.83;99123.78;4980424;28;20824;-69
2021/11/18 05:13:53;;;;;;;32.27;22.43;;;6.20;93.40;;;5.01;95.34;99109.94;4967564;28;21024;-70
2021/11/18 05:16:20;;;;;;;37.77;21.80;;;6.30;93.20;;;4.90;95.25;99121.69;4968564;28;20863;-70
2021/11/18 05:18:48;;;;;;;32.47;21.10;;;6.30;92.50;;;5.02;94.75;99120.47;4969716;28;20999;-70
2021/11/18 05:21:19;;;;;;;33.70;21.77;;;6.30;92.40;;;4.98;94.41;99132.50;4948898;28;20482;-70
2021/11/18 05:23:47;;;;;;;32.80;21.17;;;6.30;92.90;;;4.92;94.95;99130.41;4968205;28;20450;-69
2021/11/18 05:26:19;;;;;;;38.17;22.80;;;6.20;93.00;;;4.64;96.17;99133.97;4969339;28;20513;-69
2021/11/18 05:28:47;;;;;;;30.80;21.33;;;6.10;93.70;;;4.85;96.65;99126.66;4970162;28;20909;-69
2021/11/18 05:31:16;;;;;;;32.70;21.40;;;6.10;94.10;;;5.01;95.16;99129.50;4973577;28;20457;-70
2021/11/18 05:33:46;;;;;;;31.57;21.87;;;6.20;93.40;;;5.10;94.02;99131.28;4953790;28;20560;-69
2021/11/18 05:36:15;;;;;;;31.33;20.60;;;6.40;92.60;;;4.80;94.93;99125.28;4968258;28;21651;-69
2021/11/18 05:38:42;;;;;;;35.80;22.00;;;6.20;92.60;;;4.95;94.98;99135.47;4966750;28;20490;-68
2021/11/18 05:41:09;;;;;;;35.80;22.10;;;6.20;92.80;;;4.92;95.71;99133.09;4969389;28;20469;-69
2021/11/18 05:43:40;;;;;;;29.17;20.97;;;6.20;92.90;;;4.82;95.22;99144.72;4966510;28;20996;-69
2021/11/18 05:46:08;;;;;;;43.63;25.57;;;6.20;92.80;;;4.91;95.56;99134.06;4972950;28;20457;-68
2021/11/18 05:48:35;;;;;;;55.10;27.97;;;6.30;93.00;;;4.97;95.75;99133.50;4966596;28;20851;-70
2021/11/18 05:51:03;;;;;;;34.03;22.80;;;6.30;93.50;;;4.95;95.12;99135.47;4967682;28;20458;-72
2021/11/18 05:53:33;;;;;;;35.47;22.97;;;6.30;92.70;;;5.06;95.02;99143.28;4964457;28;21132;-69
2021/11/18 05:56:04;;;;;;;43.97;26.63;;;6.30;93.00;;;5.15;94.47;99130.78;4964705;28;21317;-69
2021/11/18 05:58:32;;;;;;;32.60;22.00;;;6.40;93.60;;;5.09;94.40;99142.13;4949950;28;20466;-68
2021/11/18 06:01:00;;;;;;;31.03;22.53;;;6.40;92.20;;;5.14;94.69;99149.72;4962006;28;20564;-68
2021/11/18 06:03:27;;;;;;;31.73;21.10;;;6.40;92.30;;;5.04;93.89;99150.63;4967200;28;20465;-67
2021/11/18 06:05:54;;;;;;;36.37;22.80;;;6.40;92.00;;;5.05;93.69;99152.31;4965391;28;21051;-69
2021/11/18 06:08:21;;;;;;;28.90;22.20;;;6.40;92.10;;;5.05;94.76;99157.66;4967120;28;20544;-68
2021/11/18 06:10:50;;;;;;;28.57;21.40;;;6.30;92.70;;;5.15;93.50;99156.75;4961957;28;20501;-72
2021/11/18 06:13:17;;;;;;;35.93;24.10;;;6.40;92.00;;;5.00;94.04;99157.28;4968646;28;20576;-74
2021/11/18 06:15:44;;;;;;;38.87;24.03;;;6.30;91.80;;;4.96;94.28;99158.59;4951395;28;20595;-73
2021/11/18 06:18:13;;;;;;;33.47;22.07;;;6.30;92.20;;;4.97;94.89;99155.75;4964906;28;20969;-72
2021/11/18 06:20:41;;;;;;;33.80;22.83;;;6.30;92.40;;;4.97;94.31;99160.28;4934404;28;20473;-72
2021/11/18 06:23:11;;;;;;;29.40;21.57;;;6.30;92.20;;;5.28;93.03;99165.28;4953239;28;21268;-72
2021/11/18 06:25:39;;;;;;;31.60;21.97;;;6.40;92.20;;;5.28;93.69;99170.63;4948091;28;21280;-72
2021/11/18 06:28:09;;;;;;;32.10;21.27;;;6.60;91.80;;;5.41;93.60;99177.44;4952183;28;20560;-73
2021/11/18 06:30:41;;;;;;;32.53;22.83;;;6.60;91.90;;;5.29;92.89;99171.47;4946175;28;20542;-73
2021/11/18 06:33:09;;;;;;;31.73;22.17;;;6.60;91.00;;;5.22;92.95;99171.22;4949493;28;20489;-73
2021/11/18 06:35:38;;;;;;;32.53;22.33;;;6.50;91.20;;;5.29;93.44;99180.34;4963056;28;20560;-72
2021/11/18 06:38:06;;;;;;;33.40;21.03;;;6.60;91.20;;;5.33;93.51;99187.09;4963146;28;20493;-76
2021/11/18 06:40:33;;;;;;;30.57;21.03;;;6.60;91.50;;;5.36;93.54;99186.78;4962617;28;21000;-72
2021/11/18 06:43:02;;;;;;;34.83;21.70;;;6.60;91.50;;;5.39;92.42;99194.53;4947461;28;20490;-72
2021/11/18 06:45:33;;;;;;;32.10;22.23;;;6.70;90.50;;;5.25;91.96;99185.16;4954119;28;20445;-72
2021/11/18 06:48:00;;;;;;;34.10;21.33;;;6.70;90.50;;;5.44;91.47;99209.31;4954398;28;20575;-72
2021/11/18 06:50:28;;;;;;;30.20;22.53;;;6.70;90.40;;;5.39;91.98;99202.56;4972435;28;21018;-72
2021/11/18 06:52:56;;;;;;;37.97;21.90;;;6.70;90.30;;;5.32;91.44;99204.16;4970901;28;20539;-71
2021/11/18 06:55:24;;;;;;;34.00;22.50;;;6.60;89.90;;;5.28;91.54;99204.63;4970096;28;20469;-72
2021/11/18 06:57:51;;;;;;;29.47;22.60;;;6.60;89.70;;;5.26;92.81;99212.81;4971446;28;20558;-71
2021/11/18 07:00:20;;;;;;;37.10;24.13;;;6.60;90.40;;;5.16;93.22;99214.72;4966695;28;20489;-72
2021/11/18 07:02:47;;;;;;;34.22;24.23;;;6.50;90.70;;;5.09;93.17;99211.78;4968746;28;22838;-71
2021/11/18 07:05:16;;;;;;;36.27;22.60;;;6.50;91.00;;;5.28;92.81;99210.81;4969434;28;20202;-71
2021/11/18 07:07:43;;;;;;;37.70;25.50;;;6.50;91.30;;;5.27;92.23;99217.19;4955174;28;20577;-72
2021/11/18 07:10:13;;;;;;;32.40;23.40;;;6.50;90.70;;;5.34;91.77;99215.56;4965789;28;20910;-71
2021/11/18 07:12:40;;;;;;;34.73;24.47;;;6.60;90.20;;;5.32;92.18;99214.06;4967163;28;20881;-71
2021/11/18 07:15:11;;;;;;;38.70;28.55;;;6.60;90.20;;;5.46;91.61;99212.66;4964479;28;20976;-72
2021/11/18 07:17:38;;;;;;;34.17;24.07;;;6.70;90.30;;;5.57;90.76;99217.81;4947788;28;20902;-71
2021/11/18 07:20:07;;;;;;;33.77;23.43;;;6.80;88.90;;;5.51;91.08;99223.75;4966840;28;20453;-72
2021/11/18 07:22:36;;;;;;;34.43;25.10;;;6.80;88.60;;;5.67;90.03;99231.13;4963415;28;20824;-77
2021/11/18 07:25:05;;;;;;;30.07;21.80;;;6.90;87.50;;;5.73;89.12;99235.03;4968423;28;20465;-72
2021/11/18 07:27:33;;;;;;;31.07;21.33;;;6.90;87.00;;;5.59;88.98;99237.25;4966210;28;20480;-72
2021/11/18 07:30:00;;;;;;;33.37;21.70;;;7.00;85.20;;;5.45;90.27;99237.78;4967471;28;20465;-69
2021/11/18 07:32:27;;;;;;;33.30;22.67;;;6.80;86.10;;;5.45;90.29;99232.44;4967415;28;20555;-70
2021/11/18 07:34:54;;;;;;;30.97;21.47;;;6.80;86.30;;;5.48;89.84;99237.47;4968002;28;21055;-71
2021/11/18 07:37:21;;;;;;;33.50;22.60;;;6.80;86.30;;;5.41;89.48;99225.69;4949427;28;20445;-71
2021/11/18 07:39:48;;;;;;;33.90;23.33;;;6.90;86.10;;;5.54;90.18;99242.25;4968908;28;20544;-72
2021/11/18 07:42:15;;;;;;;31.63;22.70;;;6.90;87.20;;;5.68;89.67;99248.91;4968883;28;20552;-72
2021/11/18 07:44:45;;;;;;;32.87;23.13;;;6.90;86.90;;;5.60;89.89;99247.00;4968551;28;21161;-72
2021/11/18 07:47:12;;;;;;;36.70;23.47;;;6.90;86.60;;;5.68;88.90;99251.59;4946989;28;20750;-71
2021/11/18 07:49:38;;;;;;;32.33;23.37;;;7.00;86.10;;;5.64;89.09;99258.25;4965105;28;20540;-68
2021/11/18 07:52:06;;;;;;;30.87;22.23;;;7.00;86.00;;;5.65;88.70;99255.41;4971299;28;20450;-70
2021/11/18 07:54:34;;;;;;;31.23;22.30;;;7.00;85.00;;;5.68;89.44;99257.78;4948687;28;20984;-71
2021/11/18 07:57:01;;;;;;;34.70;21.37;;;7.00;85.40;;;5.63;87.64;99253.88;4967710;28;21338;-70
2021/11/18 07:59:28;;;;;;;29.60;21.30;;;7.00;83.90;;;5.52;88.16;99265.66;4968422;28;20466;-70
2021/11/18 08:01:57;;;;;;;30.23;22.20;;;6.90;83.90;;;5.67;87.35;99264.13;4968910;28;20570;-70
2021/11/18 08:04:24;;;;;;;29.03;20.33;;;7.00;83.80;;;5.78;86.58;99270.28;4967060;28;20577;-69
2021/11/18 08:06:52;;;;;;;30.93;20.00;;;7.10;83.10;;;5.81;85.74;99269.97;4967398;28;20450;-69
2021/11/18 08:09:19;;;;;;;27.47;18.97;;;7.10;82.00;;;5.74;85.05;99269.72;4967993;28;20489;-70
2021/11/18 08:11:50;;;;;;;32.73;22.10;;;7.10;81.30;;;5.89;85.03;99272.72;4966760;28;20462;-71
2021/11/18 08:14:18;;;;;;;27.93;21.03;;;7.20;81.60;;;6.02;84.89;99266.16;4964293;28;20488;-69
2021/11/18 08:16:45;;;;;;;30.03;21.93;;;7.30;81.50;;;6.12;83.95;99263.38;4948862;28;20537;-69
2021/11/18 08:19:14;;;;;;;30.53;21.90;;;7.40;80.90;;;6.30;85.08;99274.09;4967220;28;20560;-70
2021/11/18 08:21:44;;;;;;;28.00;20.60;;;7.50;81.80;;;6.09;85.60;99272.56;4968995;28;20536;-70
2021/11/18 08:24:15;;;;;;;33.03;22.60;;;7.50;81.30;;;5.91;86.74;99268.03;4951787;28;20462;-69
2021/11/18 08:26:42;;;;;;;35.57;21.53;;;7.30;82.30;;;6.12;86.42;99272.25;4967044;28;20549;-71
2021/11/18 08:29:13;;;;;;;37.93;22.40;;;7.40;82.60;;;6.02;86.00;99266.16;4952643;28;20461;-70
2021/11/18 08:31:42;;;;;;;33.33;22.33;;;7.40;82.10;;;6.09;86.40;99273.44;4966709;28;20449;-69
2021/11/18 08:34:10;;;;;;;27.60;19.00;;;7.40;82.50;;;6.25;83.92;99274.56;4949613;28;21244;-69
2021/11/18 08:36:39;;;;;;;34.70;22.60;;;7.50;80.70;;;6.35;84.84;99266.41;4966751;28;20449;-70
2021/11/18 08:39:08;;;;;;;31.90;21.47;;;7.60;81.60;;;6.15;83.86;99277.34;4949274;28;20537;-71
2021/11/18 08:41:35;;;;;;;28.77;20.30;;;7.50;79.90;;;6.07;84.55;99266.53;4970101;28;20464;-69
2021/11/18 08:44:03;;;;;;;27.83;20.83;;;7.40;80.40;;;6.02;85.78;99266.16;4968260;28;20552;-70
2021/11/18 08:46:30;;;;;;;29.50;21.23;;;7.40;81.50;;;6.11;85.85;99273.25;4955273;28;21266;-70
2021/11/18 08:49:00;;;;;;;33.17;23.57;;;7.40;81.40;;;6.23;84.88;99282.75;4965037;28;20530;-70
2021/11/18 08:51:29;;;;;;;34.00;20.23;;;7.40;81.30;;;6.32;84.29;99277.44;4970945;28;20461;-71
2021/11/18 08:54:00;;;;;;;30.40;22.97;;;7.50;81.20;;;6.30;84.44;99285.66;4971862;28;20496;-69
2021/11/18 08:56:27;;;;;;;32.13;20.80;;;7.60;81.10;;;6.34;85.00;99291.56;4963525;28;20458;-69
2021/11/18 08:58:59;;;;;;;32.30;21.67;;;7.60;81.20;;;6.43;84.99;99281.72;4965293;28;20561;-67
2021/11/18 09:01:31;;;;;;;30.87;22.10;;;7.60;81.60;;;6.48;84.68;99282.94;4963770;28;20521;-67
2021/11/18 09:03:59;;;;;;;30.07;21.33;;;7.70;81.50;;;6.40;84.66;99298.97;4968338;28;20525;-67
2021/11/18 09:06:27;;;;;;;29.63;20.83;;;7.60;81.40;;;6.48;84.36;99293.66;4966937;28;20888;-67
2021/11/18 09:08:55;;;;;;;32.93;22.57;;;7.70;81.20;;;6.47;84.14;99291.13;4966896;28;20480;-67
2021/11/18 09:11:25;;;;;;;29.10;20.57;;;7.70;81.00;;;6.49;83.81;99294.50;4958681;28;20533;-67
2021/11/18 09:13:54;;;;;;;28.90;20.90;;;7.80;80.30;;;6.19;83.84;99262.59;4945653;28;20485;-66
2021/11/18 09:16:23;;;;;;;29.30;20.07;;;7.70;80.20;;;6.61;82.44;99308.53;4961070;28;20552;-67
2021/11/18 09:18:50;;;;;;;31.73;22.30;;;7.80;79.80;;;6.80;82.06;99310.97;4961221;28;20596;-67
2021/11/18 09:21:22;;;;;;;30.27;22.03;;;7.90;79.60;;;6.91;81.37;99314.41;4947663;28;20456;-68
2021/11/18 09:23:57;;;;;;;33.20;21.60;;;8.00;79.00;;;7.11;81.15;99308.78;4964872;28;20446;-67
2021/11/18 09:26:29;;;;;;;29.23;20.20;;;8.20;78.80;;;7.06;80.66;99307.44;4964420;28;20488;-67
2021/11/18 09:28:57;;;;;;;25.80;18.77;;;8.40;78.10;;;7.19;79.88;99322.25;4963519;28;20478;-68
2021/11/18 09:31:24;;;;;;;28.83;19.90;;;8.40;77.50;;;7.21;78.75;99326.47;4957497;28;20556;-67
2021/11/18 09:33:52;;;;;;;23.40;17.67;;;8.40;76.20;;;7.08;77.98;99332.28;4960728;28;20983;-67
2021/11/18 09:36:22;;;;;;;33.17;21.03;;;8.40;75.50;;;7.39;78.19;99328.19;4947443;28;20458;-67
2021/11/18 09:38:51;;;;;;;30.92;22.63;;;8.60;75.70;;;7.55;77.61;99326.56;4962402;28;20980;-68
2021/11/18 09:41:45;;;;;;;26.70;18.97;;;8.70;75.20;;;7.55;77.65;99324.75;4965509;28;20202;-68
2021/11/18 09:45:02;;;;;;;27.93;19.17;;;8.70;74.70;;;7.83;74.87;99329.00;4962222;28;20975;-68
2021/11/18 09:48:28;;;;;;;23.07;17.47;;;9.00;73.20;;;7.41;76.21;99336.13;4948314;28;21007;-68
2021/11/18 09:51:08;;;;;;;28.73;17.57;;;8.80;72.20;;;7.14;77.50;99338.03;4953382;28;20450;-68
2021/11/18 09:53:53;;;;;;;23.37;17.60;;;8.50;73.20;;;7.05;78.43;99321.88;4959610;28;20540;-67
2021/11/18 09:56:32;;;;;;;28.57;19.30;;;8.40;74.30;;;7.32;78.05;99338.75;4964126;28;20504;-66
2021/11/18 09:59:24;;;;;;;25.30;18.80;;;8.60;74.20;;;7.16;78.98;99323.44;4951988;28;20488;-67
2021/11/18 10:02:17;;;;;;;25.80;16.97;;;8.60;74.50;;;7.58;77.52;99327.09;4965099;28;20526;-67
2021/11/18 10:04:49;;;;;;;23.63;18.00;;;8.80;74.30;;;7.68;77.47;99316.19;4948188;28;20445;-67
2021/11/18 10:07:22;;;;;;;25.23;17.60;;;8.90;74.30;;;8.00;75.86;99316.41;4965499;28;20560;-67
2021/11/18 10:10:07;;;;;;;23.10;16.93;;;9.10;73.30;;;7.89;74.24;99313.03;4966032;28;20480;-67
2021/11/18 10:12:51;;;;;;;25.30;17.90;;;9.20;71.60;;;7.80;74.84;99320.25;4952608;28;21007;-67
2021/11/18 10:15:23;;;;;;;27.60;18.07;;;9.20;71.70;;;7.62;75.61;99325.75;4945377;28;20562;-66
2021/11/18 10:17:57;;;;;;;24.00;18.50;;;9.00;71.70;;;7.58;75.97;99327.09;4954768;28;20811;-68
2021/11/18 10:20:27;;;;;;;25.40;17.57;;;8.90;72.30;;;7.43;77.29;99329.59;4965336;28;21951;-68
2021/11/18 10:22:58;;;;;;;24.73;18.13;;;8.70;72.90;;;7.40;77.45;99334.44;4971494;28;20481;-67
2021/11/18 10:25:45;;;;;;;24.90;18.33;;;8.70;73.10;;;7.38;78.29;99331.91;4976875;28;21153;-67
2021/11/18 10:28:47;;;;;;;29.00;20.07;;;8.60;73.80;;;7.50;77.58;99333.28;4968464;28;20469;-67
2021/11/18 10:31:27;;;;;;;27.33;18.07;;;8.60;73.80;;;7.53;77.59;99334.81;4924225;29;20463;-67